Startpagina
METAR-TAF:

METAR-TAF

Vliegvelden :

Hahn, Duitsland

Flughafen Frankfurt-Hahn

breedte: 49-57N, lengte: 007-16E, hoogte: 491 m

Actueel weer

Dit bericht is 44 minuten geleden gemaakt, om 09:20 UTC
Wind 4 kt uit het zuidoosten, variërend tussen het oostzuidoosten en het zuiden
Temperatuur -2°C
Vochtigheid 86%
Druk 1018 hPa
Zicht 10 km of meer
Gebroken wolken op 1100 ft

METAR: EDFH 190920Z 14004KT 110V170 9999 BKN011 M02/M04 Q1018

Tijdstip: 11:04 (10:04 UTC)

Verwachting

Dit bericht is 5 uur en het 4 minuten geleden gemaakt, om 05:00 UTC
Verwachting geldig van 19 om 06 UTC tot 20 om 06 UTC
Wind 6 kt uit het zuidoosten
Zicht 10 km of meer
Verspreide wolken op 800 ft
Gebroken wolken op 1500 ft
Tijdelijke
van 19 om 06 UTC tot 19 om 11 UTC
Gebroken wolken op 800 ft
Tijdelijke
van 19 om 21 UTC tot 20 om 06 UTC
Gebroken wolken op 800 ft

TAF: EDFH 190500Z 1906/2006 14006KT 9999 SCT008 BKN015 TEMPO 1906/1911 BKN008 TEMPO 1921/2006 BKN008

Waarnemingen en weersverwachtingen van meer dan 4000 vliegvelden (METAR en TAF).

De beschikbare stations zijn de gele en rode punten op de kaart.

Ga met uw muis naar het station om de naam te zien.

Klik dan om waarnemingen en weersverwachtingen te zien.

kaart wijzigen: klik op de groene knoppen met een zwart kruis om in te zoomen, op de groene knop met een streepje om uit te zoomen of op de groene pijlen voor aangrenzende kaarten.


METAR-TAF: